createdAt,value
2017-07-04T00:00:22.033Z,0
2017-07-04T00:01:22.002Z,0
2017-07-04T00:02:21.691Z,0
2017-07-04T00:03:21.974Z,0
2017-07-04T00:04:21.956Z,0
2017-07-04T00:05:21.925Z,0
2017-07-04T00:06:21.319Z,0
2017-07-04T00:07:21.575Z,0
2017-07-04T00:08:21.876Z,0
2017-07-04T00:09:21.852Z,0
2017-07-04T00:10:21.528Z,0
2017-07-04T00:11:21.807Z,0
2017-07-04T00:12:21.793Z,0
2017-07-04T00:13:21.471Z,0
2017-07-04T00:14:21.460Z,0
2017-07-04T00:15:21.424Z,0
2017-07-04T00:16:21.725Z,0
2017-07-04T00:17:21.699Z,0
2017-07-04T00:18:21.670Z,0
2017-07-04T00:19:21.662Z,0
2017-07-04T00:20:21.322Z,0
2017-07-04T00:21:21.614Z,0
2017-07-04T00:22:21.586Z,0
2017-07-04T00:23:21.265Z,0
2017-07-04T00:24:21.560Z,0
2017-07-04T00:25:21.230Z,0
2017-07-04T00:26:21.510Z,0
2017-07-04T00:27:21.749Z,0
2017-07-04T00:28:21.472Z,0
2017-07-04T00:29:21.161Z,0
2017-07-04T00:30:21.134Z,0
2017-07-04T00:31:21.425Z,0
2017-07-04T00:32:21.393Z,0
2017-07-04T00:33:21.378Z,0
2017-07-04T00:34:21.361Z,0
2017-07-04T00:35:21.335Z,0
2017-07-04T00:36:21.315Z,0
2017-07-04T00:37:21.297Z,0
2017-07-04T00:38:21.277Z,0
2017-07-04T00:39:20.955Z,0
2017-07-04T00:40:21.240Z,0
2017-07-04T00:41:21.221Z,0
2017-07-04T00:42:21.258Z,0
2017-07-04T00:43:21.184Z,0
2017-07-04T00:44:21.160Z,0
2017-07-04T00:45:21.148Z,0
2017-07-04T00:46:21.133Z,0
2017-07-04T00:47:21.091Z,0
2017-07-04T00:48:21.080Z,0
2017-07-04T00:49:21.063Z,0
2017-07-04T00:50:21.052Z,0
2017-07-04T00:51:21.018Z,0
2017-07-04T00:52:21.000Z,0
2017-07-04T00:53:20.682Z,0
2017-07-04T00:54:20.962Z,0
2017-07-04T00:55:20.933Z,0
2017-07-04T00:56:20.926Z,0
2017-07-04T00:57:20.909Z,0
2017-07-04T00:58:20.882Z,0
2017-07-04T00:59:20.861Z,0
2017-07-04T01:00:20.836Z,0
2017-07-04T01:01:20.202Z,0
2017-07-04T01:02:20.797Z,0
2017-07-04T01:03:20.788Z,0
2017-07-04T01:04:20.756Z,0
2017-07-04T01:05:20.742Z,0
2017-07-04T01:06:20.716Z,0
2017-07-04T01:07:20.107Z,0
2017-07-04T01:08:20.922Z,0
2017-07-04T01:09:20.674Z,0
2017-07-04T01:10:20.335Z,0
2017-07-04T01:11:20.311Z,0
2017-07-04T01:12:20.289Z,0
2017-07-04T01:13:20.584Z,0
2017-07-04T01:14:20.559Z,0
2017-07-04T01:15:20.536Z,0
2017-07-04T01:16:20.215Z,0
2017-07-04T01:17:20.551Z,0
2017-07-04T01:18:19.861Z,0
2017-07-04T01:19:20.457Z,0
2017-07-04T01:20:20.431Z,0
2017-07-04T01:21:20.418Z,0
2017-07-04T01:22:20.394Z,0
2017-07-04T01:23:20.379Z,0
2017-07-04T01:24:20.359Z,0
2017-07-04T01:25:20.338Z,0
2017-07-04T01:26:20.319Z,0
2017-07-04T01:27:20.298Z,0
2017-07-04T01:28:20.273Z,0
2017-07-04T01:29:20.264Z,0
2017-07-04T01:30:20.241Z,0
2017-07-04T01:31:20.222Z,0
2017-07-04T01:32:20.199Z,0
2017-07-04T01:33:20.179Z,0
2017-07-04T01:34:20.096Z,0
2017-07-04T01:35:19.826Z,0
2017-07-04T01:36:20.115Z,0
2017-07-04T01:37:20.105Z,0
2017-07-04T01:38:20.071Z,0
2017-07-04T01:39:20.056Z,0
2017-07-04T01:40:20.031Z,0
2017-07-04T01:41:20.053Z,0
2017-07-04T01:42:20.004Z,0
2017-07-04T01:43:19.978Z,0
2017-07-04T01:44:19.956Z,0
2017-07-04T01:45:19.921Z,0
2017-07-04T01:46:19.916Z,0
2017-07-04T01:47:19.892Z,0
2017-07-04T01:48:19.877Z,0
2017-07-04T01:49:19.859Z,0
2017-07-04T01:50:20.132Z,0
2017-07-04T01:51:19.828Z,0
2017-07-04T01:52:19.790Z,0
2017-07-04T01:53:19.484Z,0
2017-07-04T01:54:19.441Z,0
2017-07-04T01:55:19.755Z,0
2017-07-04T01:56:19.710Z,0
2017-07-04T01:57:19.698Z,0
2017-07-04T01:58:19.665Z,0
2017-07-04T01:59:19.656Z,0
2017-07-04T02:00:19.620Z,0
2017-07-04T02:01:19.603Z,0
2017-07-04T02:02:19.583Z,0
2017-07-04T02:03:19.576Z,0
2017-07-04T02:04:19.551Z,0
2017-07-04T02:05:18.911Z,0
2017-07-04T02:06:19.506Z,0
2017-07-04T02:07:19.735Z,0
2017-07-04T02:08:19.465Z,0
2017-07-04T02:09:19.443Z,0
2017-07-04T02:10:19.115Z,0
2017-07-04T02:11:19.402Z,0
2017-07-04T02:12:19.386Z,0
2017-07-04T02:13:19.379Z,0
2017-07-04T02:14:19.375Z,0
2017-07-04T02:15:19.320Z,0
2017-07-04T02:16:19.301Z,0
2017-07-04T02:17:19.286Z,0
2017-07-04T02:18:19.265Z,0
2017-07-04T02:19:19.258Z,0
2017-07-04T02:20:19.227Z,0
2017-07-04T02:21:19.199Z,0
2017-07-04T02:22:19.187Z,0
2017-07-04T02:23:19.165Z,0
2017-07-04T02:24:19.642Z,0
2017-07-04T02:25:18.817Z,0
2017-07-04T02:26:19.105Z,0
2017-07-04T02:27:19.080Z,0
2017-07-04T02:28:18.811Z,0
2017-07-04T02:29:19.038Z,0
2017-07-04T02:30:19.028Z,0
2017-07-04T02:31:18.999Z,0
2017-07-04T02:32:18.989Z,0
2017-07-04T02:33:18.960Z,0
2017-07-04T02:34:18.950Z,0
2017-07-04T02:35:18.922Z,0
2017-07-04T02:36:18.901Z,0
2017-07-04T02:37:18.886Z,0
2017-07-04T02:38:18.559Z,0
2017-07-04T02:39:18.850Z,0
2017-07-04T02:40:18.512Z,0
2017-07-04T02:41:18.798Z,0
2017-07-04T02:42:18.474Z,0
2017-07-04T02:43:18.763Z,0
2017-07-04T02:44:18.431Z,0
2017-07-04T02:45:18.725Z,0
2017-07-04T02:46:18.697Z,0
2017-07-04T02:47:18.682Z,0
2017-07-04T02:48:18.654Z,0
2017-07-04T02:49:18.638Z,0
2017-07-04T02:50:18.624Z,0
2017-07-04T02:51:18.603Z,0
2017-07-04T02:52:18.579Z,0
2017-07-04T02:53:18.564Z,0
2017-07-04T02:54:18.230Z,0
2017-07-04T02:55:18.520Z,0
2017-07-04T02:56:18.753Z,0
2017-07-04T02:57:18.475Z,0
2017-07-04T02:58:18.471Z,0
2017-07-04T02:59:18.431Z,0
2017-07-04T03:00:18.422Z,0
2017-07-04T03:01:18.397Z,0
2017-07-04T03:02:18.380Z,0
2017-07-04T03:03:18.056Z,0
2017-07-04T03:04:18.337Z,0
2017-07-04T03:05:18.327Z,0
2017-07-04T03:06:18.294Z,0
2017-07-04T03:07:18.589Z,0
2017-07-04T03:08:18.267Z,0
2017-07-04T03:09:18.241Z,0
2017-07-04T03:10:18.222Z,0
2017-07-04T03:11:18.201Z,0
2017-07-04T03:12:18.177Z,0
2017-07-04T03:13:18.152Z,5
2017-07-04T03:14:18.149Z,5
2017-07-04T03:15:18.121Z,5
2017-07-04T03:16:18.130Z,5
2017-07-04T03:17:18.075Z,5
2017-07-04T03:18:18.308Z,5
2017-07-04T03:19:18.038Z,5
2017-07-04T03:20:18.013Z,5
2017-07-04T03:21:17.996Z,5
2017-07-04T03:22:17.975Z,5
2017-07-04T03:23:18.008Z,5
2017-07-04T03:24:17.636Z,5
2017-07-04T03:25:18.223Z,5
2017-07-04T03:26:17.896Z,10
2017-07-04T03:27:17.579Z,10
2017-07-04T03:28:17.856Z,10
2017-07-04T03:29:17.840Z,10
2017-07-04T03:30:17.809Z,10
2017-07-04T03:31:17.792Z,10
2017-07-04T03:32:17.775Z,10
2017-07-04T03:33:17.758Z,10
2017-07-04T03:34:17.728Z,10
2017-07-04T03:35:17.713Z,15
2017-07-04T03:36:17.699Z,15
2017-07-04T03:37:17.681Z,15
2017-07-04T03:38:17.648Z,15
2017-07-04T03:39:17.635Z,15
2017-07-04T03:40:17.613Z,15
2017-07-04T03:41:17.588Z,15
2017-07-04T03:42:17.267Z,15
2017-07-04T03:43:17.552Z,20
2017-07-04T03:44:17.532Z,15
2017-07-04T03:45:17.511Z,15
2017-07-04T03:46:17.184Z,10
2017-07-04T03:47:17.169Z,10
2017-07-04T03:48:17.512Z,15
2017-07-04T03:49:17.426Z,15
2017-07-04T03:50:17.411Z,15
2017-07-04T03:51:17.390Z,15
2017-07-04T03:52:17.376Z,15
2017-07-04T03:53:17.360Z,15
2017-07-04T03:54:17.337Z,15
2017-07-04T03:55:17.319Z,10
2017-07-04T03:56:17.306Z,15
2017-07-04T03:57:17.282Z,15
2017-07-04T03:58:17.259Z,15
2017-07-04T03:59:16.932Z,15
2017-07-04T04:00:16.891Z,15
2017-07-04T04:01:17.180Z,15
2017-07-04T04:02:17.224Z,15
2017-07-04T04:03:17.145Z,20
2017-07-04T04:04:16.827Z,20
2017-07-04T04:05:16.827Z,20
2017-07-04T04:06:17.086Z,30
2017-07-04T04:07:16.758Z,35
2017-07-04T04:08:16.747Z,40
2017-07-04T04:09:16.745Z,50
2017-07-04T04:10:17.259Z,60
2017-07-04T04:11:16.993Z,65
2017-07-04T04:12:16.970Z,70
2017-07-04T04:13:16.643Z,75
2017-07-04T04:14:16.312Z,80
2017-07-04T04:15:16.604Z,85
2017-07-04T04:16:16.892Z,80
2017-07-04T04:17:16.562Z,80
2017-07-04T04:18:16.541Z,90
2017-07-04T04:19:16.826Z,95
2017-07-04T04:20:16.858Z,105
2017-07-04T04:21:16.799Z,110
2017-07-04T04:22:16.762Z,115
2017-07-04T04:23:16.739Z,115
2017-07-04T04:24:16.166Z,120
2017-07-04T04:25:16.705Z,125
2017-07-04T04:26:16.694Z,140
2017-07-04T04:27:16.670Z,150
2017-07-04T04:28:16.702Z,155
2017-07-04T04:29:16.638Z,155
2017-07-04T04:30:16.605Z,150
2017-07-04T04:31:16.645Z,145
2017-07-04T04:32:16.567Z,135
2017-07-04T04:33:16.547Z,140
2017-07-04T04:34:16.532Z,160
2017-07-04T04:35:16.505Z,170
2017-07-04T04:36:16.536Z,180
2017-07-04T04:37:16.498Z,185
2017-07-04T04:38:16.446Z,175
2017-07-04T04:39:16.436Z,175
2017-07-04T04:40:16.412Z,185
2017-07-04T04:41:16.397Z,195
2017-07-04T04:42:16.425Z,215
2017-07-04T04:43:16.042Z,195
2017-07-04T04:44:16.344Z,190
2017-07-04T04:45:16.009Z,185
2017-07-04T04:46:16.296Z,180
2017-07-04T04:47:16.276Z,165
2017-07-04T04:48:15.948Z,165
2017-07-04T04:49:16.235Z,175
2017-07-04T04:50:15.911Z,180
2017-07-04T04:51:15.907Z,190
2017-07-04T04:52:15.925Z,195
2017-07-04T04:53:16.168Z,200
2017-07-04T04:54:16.154Z,190
2017-07-04T04:55:16.171Z,180
2017-07-04T04:56:16.101Z,180
2017-07-04T04:57:16.127Z,190
2017-07-04T04:58:16.063Z,185
2017-07-04T04:59:16.039Z,160
2017-07-04T05:00:16.014Z,135
2017-07-04T05:01:16.001Z,110
2017-07-04T05:02:15.996Z,95
2017-07-04T05:03:16.018Z,85
2017-07-04T05:04:15.947Z,75
2017-07-04T05:05:15.925Z,75
2017-07-04T05:06:15.600Z,70
2017-07-04T05:07:16.181Z,70
2017-07-04T05:08:15.567Z,70
2017-07-04T05:09:15.262Z,70
2017-07-04T05:10:15.832Z,75
2017-07-04T05:11:15.550Z,80
2017-07-04T05:12:15.787Z,90
2017-07-04T05:13:15.776Z,80
2017-07-04T05:14:15.135Z,70
2017-07-04T05:15:15.428Z,75
2017-07-04T05:16:15.408Z,85
2017-07-04T05:17:15.699Z,95
2017-07-04T05:18:15.668Z,100
2017-07-04T05:19:15.357Z,95
2017-07-04T05:20:15.629Z,100
2017-07-04T05:21:15.624Z,120
2017-07-04T05:22:15.589Z,145
2017-07-04T05:23:15.574Z,165
2017-07-04T05:24:15.566Z,175
2017-07-04T05:25:15.246Z,175
2017-07-04T05:26:15.509Z,175
2017-07-04T05:27:15.193Z,175
2017-07-04T05:28:15.479Z,175
2017-07-04T05:29:15.465Z,175
2017-07-04T05:30:15.437Z,170
2017-07-04T05:31:15.421Z,170
2017-07-04T05:32:15.403Z,170
2017-07-04T05:33:15.431Z,170
2017-07-04T05:34:15.399Z,170
2017-07-04T05:35:15.335Z,165
2017-07-04T05:36:15.337Z,165
2017-07-04T05:37:15.303Z,165
2017-07-04T05:38:14.968Z,165
2017-07-04T05:39:15.273Z,175
2017-07-04T05:40:15.240Z,180
2017-07-04T05:41:15.260Z,185
2017-07-04T05:42:14.899Z,180
2017-07-04T05:43:15.198Z,185
2017-07-04T05:44:15.153Z,190
2017-07-04T05:45:15.139Z,200
2017-07-04T05:46:14.810Z,205
2017-07-04T05:47:15.099Z,210
2017-07-04T05:48:15.128Z,210
2017-07-04T05:49:15.063Z,210
2017-07-04T05:50:15.052Z,215
2017-07-04T05:51:15.018Z,220
2017-07-04T05:52:14.997Z,220
2017-07-04T05:53:15.006Z,215
2017-07-04T05:54:14.659Z,210
2017-07-04T05:55:15.243Z,210
2017-07-04T05:56:14.924Z,210
2017-07-04T05:57:14.943Z,210
2017-07-04T05:58:14.570Z,210
2017-07-04T05:59:14.918Z,210
2017-07-04T06:00:14.541Z,200
2017-07-04T06:01:14.829Z,175
2017-07-04T06:02:14.500Z,160
2017-07-04T06:03:14.225Z,150
2017-07-04T06:04:14.837Z,145
2017-07-04T06:05:14.759Z,145
2017-07-04T06:06:14.422Z,150
2017-07-04T06:07:14.103Z,155
2017-07-04T06:08:14.691Z,155
2017-07-04T06:09:14.668Z,150
2017-07-04T06:10:14.339Z,150
2017-07-04T06:11:14.318Z,150
2017-07-04T06:12:14.612Z,150
2017-07-04T06:13:14.595Z,170
2017-07-04T06:14:14.567Z,190
2017-07-04T06:15:14.556Z,185
2017-07-04T06:16:14.221Z,185
2017-07-04T06:17:14.513Z,180
2017-07-04T06:18:14.494Z,170
2017-07-04T06:19:14.487Z,165
2017-07-04T06:20:14.220Z,165
2017-07-04T06:21:14.435Z,160
2017-07-04T06:22:14.400Z,140
2017-07-04T06:23:14.397Z,130
2017-07-04T06:24:14.382Z,135
2017-07-04T06:25:14.351Z,140
2017-07-04T06:26:14.337Z,145
2017-07-04T06:27:14.338Z,170
2017-07-04T06:28:13.995Z,200
2017-07-04T06:29:14.276Z,205
2017-07-04T06:30:14.259Z,190
2017-07-04T06:31:13.935Z,170
2017-07-04T06:32:14.217Z,150
2017-07-04T06:33:13.892Z,155
2017-07-04T06:34:14.187Z,165
2017-07-04T06:35:14.163Z,165
2017-07-04T06:36:13.840Z,185
2017-07-04T06:37:14.116Z,210
2017-07-04T06:38:14.157Z,190
2017-07-04T06:39:14.088Z,155
2017-07-04T06:40:14.073Z,145
2017-07-04T06:41:14.041Z,135
2017-07-04T06:42:14.014Z,135
2017-07-04T06:43:13.997Z,135
2017-07-04T06:44:13.975Z,135
2017-07-04T06:45:13.950Z,130
2017-07-04T06:46:13.319Z,140
2017-07-04T06:47:13.928Z,130
2017-07-04T06:48:13.894Z,120
2017-07-04T06:49:13.880Z,125
2017-07-04T06:50:13.853Z,135
2017-07-04T06:51:13.843Z,140
2017-07-04T06:52:13.819Z,130
2017-07-04T06:53:13.490Z,135
2017-07-04T06:54:13.775Z,155
2017-07-04T06:55:13.811Z,170
2017-07-04T06:56:13.650Z,165
2017-07-04T06:57:13.771Z,150
2017-07-04T06:58:13.395Z,140
2017-07-04T06:59:13.388Z,140
2017-07-04T07:00:13.356Z,145
2017-07-04T07:01:13.330Z,140
2017-07-04T07:02:13.683Z,125
2017-07-04T07:03:13.656Z,160
2017-07-04T07:04:13.657Z,220
2017-07-04T07:05:13.561Z,255
2017-07-04T07:06:13.543Z,255
2017-07-04T07:07:13.209Z,275
2017-07-04T07:08:13.513Z,265
2017-07-04T07:09:13.221Z,220
2017-07-04T07:10:12.855Z,215
2017-07-04T07:11:27.491Z,225
2017-07-04T07:12:13.424Z,220
2017-07-04T07:13:13.450Z,210
2017-07-04T07:14:13.437Z,245
2017-07-04T07:15:13.393Z,330
2017-07-04T07:16:13.346Z,390
2017-07-04T07:17:13.333Z,365
2017-07-04T07:18:13.302Z,305
2017-07-04T07:19:13.335Z,275
2017-07-04T07:20:13.268Z,260
2017-07-04T07:21:13.245Z,265
2017-07-04T07:22:13.268Z,280
2017-07-04T07:23:13.198Z,270
2017-07-04T07:24:12.973Z,250
2017-07-04T07:25:13.215Z,240
2017-07-04T07:26:13.196Z,230
2017-07-04T07:27:13.239Z,205
2017-07-04T07:28:12.804Z,175
2017-07-04T07:29:13.131Z,160
2017-07-04T07:30:13.068Z,150
2017-07-04T07:31:13.046Z,155
2017-07-04T07:32:12.721Z,195
2017-07-04T07:33:13.012Z,225
2017-07-04T07:34:12.984Z,270
2017-07-04T07:35:12.713Z,320
2017-07-04T07:36:12.949Z,340
2017-07-04T07:37:12.934Z,390
2017-07-04T07:38:12.916Z,435
2017-07-04T07:39:12.997Z,420
2017-07-04T07:40:12.705Z,415
2017-07-04T07:41:12.894Z,355
2017-07-04T07:42:13.073Z,305
2017-07-04T07:43:12.919Z,255
2017-07-04T07:44:12.686Z,210
2017-07-04T07:45:12.767Z,210
2017-07-04T07:46:12.742Z,270
2017-07-04T07:47:12.745Z,295
2017-07-04T07:48:12.872Z,260
2017-07-04T07:49:12.780Z,240
2017-07-04T07:50:12.675Z,225
2017-07-04T07:51:12.358Z,245
2017-07-04T07:52:12.636Z,310
2017-07-04T07:53:12.313Z,350
2017-07-04T07:54:12.609Z,370
2017-07-04T07:55:12.261Z,420
2017-07-04T07:56:12.659Z,430
2017-07-04T07:57:12.541Z,420
2017-07-04T07:58:12.518Z,500
2017-07-04T07:59:12.521Z,575
2017-07-04T08:00:12.479Z,565
2017-07-04T08:01:12.477Z,440
2017-07-04T08:02:12.135Z,400
2017-07-04T08:03:12.450Z,375
2017-07-04T08:04:12.113Z,430
2017-07-04T08:07:33.953Z,460
2017-07-04T08:07:44.686Z,430
2017-07-04T08:08:44.100Z,390
2017-07-04T08:09:44.076Z,470
2017-07-04T08:10:43.795Z,580
2017-07-04T08:11:43.713Z,860
2017-07-04T08:12:43.740Z,575
2017-07-04T08:13:44.062Z,690
2017-07-04T08:14:44.056Z,675
2017-07-04T08:15:43.676Z,585
2017-07-04T08:16:43.933Z,585
2017-07-04T08:17:43.926Z,545
2017-07-04T08:18:43.918Z,615
2017-07-04T08:19:43.916Z,690
2017-07-04T08:20:43.930Z,650
2017-07-04T08:21:43.859Z,670
2017-07-04T08:22:43.538Z,1140
2017-07-04T08:23:43.882Z,575
2017-07-04T08:24:43.486Z,515
2017-07-04T08:25:43.532Z,435
2017-07-04T08:26:45.090Z,390
2017-07-04T08:27:43.777Z,405
2017-07-04T08:28:43.810Z,380
2017-07-04T08:29:43.813Z,360
2017-07-04T08:30:43.077Z,355
2017-07-04T08:31:43.680Z,320
2017-07-04T08:32:43.662Z,320
2017-07-04T08:33:43.636Z,350
2017-07-04T08:34:43.612Z,400
2017-07-04T08:35:42.983Z,480
2017-07-04T08:36:43.586Z,435
2017-07-04T08:37:43.260Z,385
2017-07-04T08:38:43.536Z,455
2017-07-04T08:39:43.520Z,690
2017-07-04T08:40:43.504Z,1165
2017-07-04T08:41:43.490Z,2050
2017-07-04T08:42:43.163Z,1990
2017-07-04T08:43:43.505Z,1340
2017-07-04T08:44:43.434Z,630
2017-07-04T08:45:43.419Z,815
2017-07-04T08:46:43.392Z,800
2017-07-04T08:47:43.076Z,660
2017-07-04T08:48:43.403Z,605
2017-07-04T08:49:43.368Z,685
2017-07-04T08:50:43.335Z,820
2017-07-04T08:51:43.062Z,2220
2017-07-04T08:52:43.311Z,1030
2017-07-04T08:53:43.307Z,975
2017-07-04T08:54:43.326Z,750
2017-07-04T08:55:43.252Z,985
2017-07-04T08:56:42.941Z,920
2017-07-04T08:57:42.921Z,700
2017-07-04T08:58:43.259Z,685
2017-07-04T08:59:43.508Z,485
2017-07-04T09:00:43.182Z,610
2017-07-04T09:01:42.915Z,1115
2017-07-04T09:02:43.150Z,960
2017-07-04T09:03:43.135Z,825
2017-07-04T09:04:43.107Z,960
2017-07-04T09:05:43.359Z,1190
2017-07-04T09:06:43.148Z,1255
2017-07-04T09:07:43.125Z,1660
2017-07-04T09:08:43.049Z,1105
2017-07-04T09:09:43.088Z,1150
2017-07-04T09:10:43.022Z,1105
2017-07-04T09:11:43.019Z,715
2017-07-04T09:12:42.378Z,1265
2017-07-04T09:13:43.035Z,1725
2017-07-04T09:14:43.062Z,890
2017-07-04T09:15:42.947Z,1295
2017-07-04T09:16:42.984Z,700
2017-07-04T09:17:42.929Z,625
2017-07-04T09:18:42.914Z,650
2017-07-04T09:19:42.900Z,690
2017-07-04T09:20:42.582Z,740
2017-07-04T09:21:42.861Z,660
2017-07-04T09:22:42.854Z,760
2017-07-04T09:23:42.579Z,1285
2017-07-04T09:24:42.822Z,1310
2017-07-04T09:25:42.508Z,1510
2017-07-04T09:26:42.788Z,1635
2017-07-04T09:27:42.474Z,2195
2017-07-04T09:28:42.760Z,2070
2017-07-04T09:29:42.844Z,1950
2017-07-04T09:30:42.735Z,1910
2017-07-04T09:31:42.725Z,1360
2017-07-04T09:32:42.742Z,810
2017-07-04T09:33:42.706Z,805
2017-07-04T09:34:42.678Z,1725
2017-07-04T09:35:42.657Z,1395
2017-07-04T09:36:42.695Z,1620
2017-07-04T09:37:42.348Z,1285
2017-07-04T09:38:42.631Z,1305
2017-07-04T09:39:42.608Z,1105
2017-07-04T09:40:42.596Z,2290
2017-07-04T09:41:42.273Z,1420
2017-07-04T09:42:42.572Z,1265
2017-07-04T09:43:42.263Z,925
2017-07-04T09:44:42.545Z,845
2017-07-04T09:45:42.542Z,890
2017-07-04T09:46:42.533Z,1295
2017-07-04T09:47:42.046Z,1590
2017-07-04T09:48:42.500Z,1245
2017-07-04T09:49:42.541Z,2525
2017-07-04T09:50:42.264Z,2495
2017-07-04T09:51:42.204Z,1935
2017-07-04T09:52:42.494Z,1505
2017-07-04T09:53:42.126Z,1705
2017-07-04T09:54:42.435Z,1225
2017-07-04T09:55:42.112Z,2495
2017-07-04T09:56:42.458Z,1265
2017-07-04T09:57:42.094Z,955
2017-07-04T09:58:42.397Z,860
2017-07-04T09:59:42.387Z,895
2017-07-04T10:00:42.366Z,1260
2017-07-04T10:01:42.351Z,1435
2017-07-04T10:02:42.345Z,1170
2017-07-04T10:03:42.381Z,1615
2017-07-04T10:04:42.346Z,1415
2017-07-04T10:05:42.321Z,1465
2017-07-04T10:06:41.990Z,2370
2017-07-04T10:07:42.097Z,2060
2017-07-04T10:08:42.292Z,1015
2017-07-04T10:09:42.313Z,1640
2017-07-04T10:10:42.000Z,925
2017-07-04T10:11:42.235Z,965
2017-07-04T10:12:42.241Z,1055
2017-07-04T10:13:42.287Z,670
2017-07-04T10:14:42.222Z,545
2017-07-04T10:15:42.215Z,600
2017-07-04T10:16:42.185Z,700
2017-07-04T10:17:42.197Z,765
2017-07-04T10:18:41.865Z,870
2017-07-04T10:19:42.413Z,655
2017-07-04T10:20:42.239Z,540
2017-07-04T10:21:41.822Z,600
2017-07-04T10:22:42.133Z,940
2017-07-04T10:23:42.160Z,2475
2017-07-04T10:24:42.265Z,775
2017-07-04T10:25:41.830Z,765
2017-07-04T10:26:41.813Z,2285
2017-07-04T10:27:41.749Z,2260
2017-07-04T10:28:42.059Z,2310
2017-07-04T10:29:41.423Z,2275
2017-07-04T10:30:42.026Z,2270
2017-07-04T10:31:42.020Z,2190
2017-07-04T10:32:41.998Z,2190
2017-07-04T10:33:41.693Z,2200
2017-07-04T10:34:42.001Z,2205
2017-07-04T10:35:42.016Z,2260
2017-07-04T10:36:41.642Z,2255
2017-07-04T10:37:42.043Z,815
2017-07-04T10:38:41.927Z,490
2017-07-04T10:39:41.923Z,615
2017-07-04T10:40:42.016Z,540
2017-07-04T10:41:41.594Z,2250
2017-07-04T10:42:42.000Z,2205
2017-07-04T10:43:41.879Z,2210
2017-07-04T10:44:41.569Z,2165
2017-07-04T10:45:41.857Z,1880
2017-07-04T10:46:41.849Z,875
2017-07-04T10:47:41.890Z,920
2017-07-04T10:48:41.859Z,2425
2017-07-04T10:49:41.833Z,675
2017-07-04T10:50:41.798Z,695
2017-07-04T10:51:41.803Z,795
2017-07-04T10:52:41.790Z,585
2017-07-04T10:53:41.477Z,630
2017-07-04T10:54:41.761Z,715
2017-07-04T10:55:41.756Z,660
2017-07-04T10:56:41.130Z,725
2017-07-04T10:57:41.744Z,775
2017-07-04T10:58:41.413Z,930
2017-07-04T10:59:41.714Z,885
2017-07-04T11:00:41.696Z,815
2017-07-04T11:01:41.374Z,775
2017-07-04T11:02:41.671Z,750
2017-07-04T11:03:41.040Z,725
2017-07-04T11:04:41.641Z,630
2017-07-04T11:05:41.622Z,650
2017-07-04T11:06:41.616Z,620
2017-07-04T11:07:41.607Z,695
2017-07-04T11:08:41.611Z,675
2017-07-04T11:09:41.585Z,675
2017-07-04T11:10:41.258Z,790
2017-07-04T11:11:41.253Z,760
2017-07-04T11:12:41.536Z,765
2017-07-04T11:13:41.226Z,1080
2017-07-04T11:14:41.204Z,1215
2017-07-04T11:15:41.495Z,955
2017-07-04T11:16:41.180Z,700
2017-07-04T11:17:41.461Z,590
2017-07-04T11:18:41.144Z,800
2017-07-04T11:19:41.481Z,570
2017-07-04T11:20:41.479Z,575
2017-07-04T11:21:41.098Z,560
2017-07-04T11:22:41.400Z,555
2017-07-04T11:23:41.386Z,570
2017-07-04T11:24:41.432Z,610
2017-07-04T11:25:41.355Z,620
2017-07-04T11:26:41.333Z,645
2017-07-04T11:27:41.021Z,605
2017-07-04T11:28:41.376Z,600
2017-07-04T11:29:41.291Z,630
2017-07-04T11:30:41.275Z,685
2017-07-04T11:31:41.264Z,720
2017-07-04T11:32:41.293Z,745
2017-07-04T11:33:41.236Z,760
2017-07-04T11:34:41.227Z,710
2017-07-04T11:35:41.205Z,625
2017-07-04T11:36:41.190Z,575
2017-07-04T11:37:41.188Z,530
2017-07-04T11:38:41.178Z,520
2017-07-04T11:39:41.147Z,545
2017-07-04T11:40:41.132Z,570
2017-07-04T11:41:41.167Z,545
2017-07-04T11:42:41.097Z,505
2017-07-04T11:43:41.025Z,465
2017-07-04T11:44:41.071Z,465
2017-07-04T11:45:41.262Z,430
2017-07-04T11:46:41.039Z,425
2017-07-04T11:47:40.722Z,395
2017-07-04T11:48:40.710Z,365
2017-07-04T11:49:40.985Z,335
2017-07-04T11:50:40.975Z,325
2017-07-04T11:51:40.958Z,320
2017-07-04T11:52:40.791Z,320
2017-07-04T11:53:40.626Z,365
2017-07-04T11:54:40.924Z,360
2017-07-04T11:55:40.895Z,400
2017-07-04T11:56:40.621Z,410
2017-07-04T11:57:40.865Z,345
2017-07-04T11:58:40.850Z,330
2017-07-04T11:59:41.128Z,380
2017-07-04T12:00:40.508Z,385
2017-07-04T12:01:40.820Z,435
2017-07-04T12:02:40.525Z,520
2017-07-04T12:03:40.760Z,565
2017-07-04T12:04:40.761Z,575
2017-07-04T12:05:40.936Z,540
2017-07-04T12:06:40.720Z,480
2017-07-04T12:07:40.407Z,455
2017-07-04T12:08:40.690Z,430
2017-07-04T12:09:40.669Z,485
2017-07-04T12:10:40.698Z,565
2017-07-04T12:11:40.636Z,540
2017-07-04T12:12:40.723Z,520
2017-07-04T12:13:40.310Z,435
2017-07-04T12:14:40.628Z,390
2017-07-04T12:15:40.261Z,390
2017-07-04T12:16:40.549Z,420
2017-07-04T12:17:40.539Z,370
2017-07-04T12:18:40.528Z,310
2017-07-04T12:19:40.499Z,305
2017-07-04T12:20:40.545Z,325
2017-07-04T12:21:40.220Z,310
2017-07-04T12:22:40.499Z,295
2017-07-04T12:23:40.542Z,320
2017-07-04T12:24:40.475Z,325
2017-07-04T12:25:40.139Z,350
2017-07-04T12:26:40.379Z,310
2017-07-04T12:27:40.369Z,330
2017-07-04T12:28:40.406Z,380
2017-07-04T12:29:40.341Z,420
2017-07-04T12:30:40.323Z,450
2017-07-04T12:31:40.298Z,465
2017-07-04T12:32:40.393Z,435
2017-07-04T12:33:39.977Z,475
2017-07-04T12:34:40.250Z,410
2017-07-04T12:35:40.237Z,330
2017-07-04T12:36:40.265Z,295
2017-07-04T12:37:40.249Z,300
2017-07-04T12:38:40.194Z,315
2017-07-04T12:39:40.164Z,315
2017-07-04T12:40:40.152Z,330
2017-07-04T12:41:39.820Z,360
2017-07-04T12:42:40.168Z,380
2017-07-04T12:43:40.091Z,405
2017-07-04T12:44:40.090Z,365
2017-07-04T12:45:39.764Z,330
2017-07-04T12:46:39.739Z,325
2017-07-04T12:47:39.415Z,350
2017-07-04T12:48:40.018Z,335
2017-07-04T12:49:40.006Z,320
2017-07-04T12:50:39.973Z,340
2017-07-04T12:51:39.971Z,325
2017-07-04T12:52:40.147Z,300
2017-07-04T12:53:39.643Z,285
2017-07-04T12:54:39.606Z,280
2017-07-04T12:55:39.918Z,295
2017-07-04T12:56:39.873Z,305
2017-07-04T12:57:39.548Z,300
2017-07-04T12:58:39.535Z,305
2017-07-04T12:59:39.830Z,360
2017-07-04T13:00:39.808Z,360
2017-07-04T13:01:39.788Z,375
2017-07-04T13:02:39.770Z,375
2017-07-04T13:03:39.757Z,335
2017-07-04T13:04:39.731Z,330
2017-07-04T13:05:39.772Z,350
2017-07-04T13:06:39.713Z,320
2017-07-04T13:07:39.695Z,355
2017-07-04T13:08:39.673Z,345
2017-07-04T13:09:39.652Z,355
2017-07-04T13:20:50.578Z,400
2017-07-04T13:21:21.994Z,405
2017-07-04T13:22:21.323Z,390
2017-07-04T13:23:22.288Z,420
2017-07-04T13:24:21.609Z,410
2017-07-04T13:25:21.332Z,395
2017-07-04T13:26:21.561Z,365
2017-07-04T13:27:21.232Z,340
2017-07-04T13:28:21.536Z,375
2017-07-04T13:29:21.550Z,350
2017-07-04T13:30:21.491Z,345
2017-07-04T13:31:21.477Z,375
2017-07-04T13:32:21.519Z,395
2017-07-04T13:33:21.449Z,390
2017-07-04T13:34:21.430Z,375
2017-07-04T13:35:21.112Z,355
2017-07-04T13:36:21.096Z,320
2017-07-04T13:37:21.378Z,305
2017-07-04T13:38:21.045Z,280
2017-07-04T13:39:21.341Z,265
2017-07-04T13:40:21.322Z,255
2017-07-04T13:41:21.305Z,260
2017-07-04T13:42:21.288Z,275
2017-07-04T13:43:21.286Z,285
2017-07-04T13:44:21.276Z,285
2017-07-04T13:45:21.240Z,285
2017-07-04T13:46:20.919Z,275
2017-07-04T13:47:20.894Z,265
2017-07-04T13:48:21.185Z,260
2017-07-04T13:49:21.230Z,240
2017-07-04T13:50:21.152Z,240
2017-07-04T13:51:21.134Z,235
2017-07-04T13:52:20.822Z,225
2017-07-04T13:53:21.107Z,210
2017-07-04T13:54:21.097Z,205
2017-07-04T13:55:21.129Z,200
2017-07-04T13:56:20.483Z,200
2017-07-04T13:57:21.035Z,200
2017-07-04T13:58:21.274Z,195
2017-07-04T13:59:20.707Z,190
2017-07-04T14:00:20.363Z,185
2017-07-04T14:01:20.968Z,190
2017-07-04T14:02:20.635Z,190
2017-07-04T14:03:20.631Z,200
2017-07-04T14:04:20.860Z,215
2017-07-04T14:05:20.592Z,225
2017-07-04T14:06:20.888Z,220
2017-07-04T14:07:20.565Z,215
2017-07-04T14:08:20.791Z,225
2017-07-04T14:09:20.829Z,245
2017-07-04T14:10:20.215Z,280
2017-07-04T14:11:20.232Z,290